Grand Hero — 3EKW7 — position and weather

sailwx.info

Track history (hours):
 
Tides and Currents Weather Stations Pressure Air Temp Water Temp Dewpoint Dewpoint Depression Visibility Wind Speed Wind Dir Waves Ship Positions

Grand Hero

Last reported at 2018-Jan-20 00:02 UTC. Time now 2018-Jan-20 07:27 UTC.
Position N 36°37' E 023°35'.

Length 199 m; draft 9.1 m.

Type: Ship. MMSI: 372857000.

Date/timePositionNaut miles runAvg speedWind from/ knotsBaromVisibWave heightAir tempDewpointWater temp
2018-Jan-20 00:02N 36°37' E 023°35'017.7
2018-Jan-20 00:00N 36°38' E 023°35'917.4
2018-Jan-19 23:29N 36°45' E 023°41'817.8
2018-Jan-19 23:00N 36°53' E 023°45'917.9
2018-Jan-19 22:30N 37°02' E 023°45'918.1
2018-Jan-19 22:01N 37°11' E 023°45'918.1
2018-Jan-19 21:30N 37°20' E 023°45'918.1
2018-Jan-19 21:00N 37°29' E 023°44'917.9
2018-Jan-19 20:30N 37°38' E 023°42'917.6
2018-Jan-19 20:01N 37°46' E 023°38'714.4
2018-Jan-19 19:30N 37°53' E 023°37'4 7.3
2018-Jan-19 19:00N 37°57' E 023°36'1 1.3
2018-Jan-19 18:30N 37°58' E 023°36'0 0.0
2018-Jan-19 18:00N 37°58' E 023°36'0 0.0
2018-Jan-19 17:30N 37°58' E 023°36'0 0.0
2018-Jan-19 17:00N 37°58' E 023°36'0 0.0
2018-Jan-19 16:30N 37°58' E 023°36'0 0.0
2018-Jan-19 16:00N 37°58' E 023°36'0 0.0
2018-Jan-19 15:30N 37°58' E 023°36'0 0.0
2018-Jan-19 15:00N 37°58' E 023°36'0 0.0
2018-Jan-19 14:30N 37°58' E 023°36'0 0.0
2018-Jan-19 14:00N 37°58' E 023°36'0 0.0
2018-Jan-19 13:30N 37°58' E 023°36'0 0.0
2018-Jan-19 13:00N 37°58' E 023°36'0 0.0
2018-Jan-19 12:30N 37°58' E 023°36'0 0.0
2018-Jan-19 12:00N 37°58' E 023°36'0 0.6
2018-Jan-19 11:30N 37°57' E 023°36'2 3.8
2018-Jan-19 11:01N 37°56' E 023°36'2 3.9
2018-Jan-19 10:30N 37°54' E 023°36'1 1.7
2018-Jan-19 10:00N 37°53' E 023°36'0 0.5
2018-Jan-19 09:30N 37°53' E 023°35'2 4.1
2018-Jan-19 09:01N 37°53' E 023°38'2 4.5
2018-Jan-19 08:31N 37°51' E 023°40'3 5.3
2018-Jan-19 08:01N 37°48' E 023°41'5 9.5
2018-Jan-19 07:29N 37°44' E 023°44'510.5
2018-Jan-19 07:00N 37°40' E 023°47'510.9
2018-Jan-19 06:30N 37°36' E 023°52'611.3
2018-Jan-19 05:56N 37°32' E 023°58'510.0
2018-Jan-19 05:28N 37°28' E 024°02'612.7
2018-Jan-19 05:00N 37°23' E 024°04'815.1
2018-Jan-19 04:30N 37°15' E 024°05'815.3
2018-Jan-19 04:00N 37°08' E 024°06'815.3
2018-Jan-19 03:30N 37°00' E 024°07'815.4
2018-Jan-19 03:00N 36°52' E 024°08'815.2
2018-Jan-19 02:30N 36°45' E 024°10'714.8
2018-Jan-19 02:00N 36°38' E 024°12'815.2
2018-Jan-19 01:30N 36°33' E 024°20'815.3
2018-Jan-19 01:00N 36°29' E 024°28'815.2
2018-Jan-19 00:30N 36°25' E 024°35'815.0
2018-Jan-19 00:00N 36°21' E 024°43'714.7
2018-Jan-18 23:30N 36°17' E 024°51'714.6
2018-Jan-18 23:00N 36°13' E 024°59'714.6
2018-Jan-18 22:30N 36°09' E 025°06'714.5
2018-Jan-18 22:00N 36°06' E 025°14'714.4
2018-Jan-18 21:30N 36°02' E 025°22'714.4
2018-Jan-18 21:00N 35°57' E 025°29'713.9
2018-Jan-18 20:30N 35°53' E 025°36'713.0
2018-Jan-18 20:00N 35°50' E 025°42'612.5
2018-Jan-18 19:30N 35°46' E 025°49'611.3
2018-Jan-18 19:00N 35°43' E 025°54'510.9
2018-Jan-18 18:30N 35°40' E 025°60'510.1
2018-Jan-18 17:59N 35°36' E 026°05'4 8.5
2018-Jan-18 17:30N 35°34' E 026°09'510.0
2018-Jan-18 17:00N 35°31' E 026°14'  
Track history (hours):
 
Tides and Currents Weather Stations Pressure Air Temp Water Temp Dewpoint Dewpoint Depression Visibility Wind Speed Wind Dir Waves Ship Positions

Grand Hero

Last reported at 2018-Jan-20 00:02 UTC. Time now 2018-Jan-20 07:27 UTC.
Position N 36°37' E 023°35'.

Length 199 m; draft 9.1 m.

Type: Ship. MMSI: 372857000.

Date/timePositionNaut miles runAvg speedWind from/ knotsBaromVisibWave heightAir tempDewpointWater temp
2018-Jan-20 00:02N 36°37' E 023°35'017.7
2018-Jan-20 00:00N 36°38' E 023°35'917.4
2018-Jan-19 23:29N 36°45' E 023°41'817.8
2018-Jan-19 23:00N 36°53' E 023°45'917.9
2018-Jan-19 22:30N 37°02' E 023°45'918.1
2018-Jan-19 22:01N 37°11' E 023°45'918.1
2018-Jan-19 21:30N 37°20' E 023°45'918.1
2018-Jan-19 21:00N 37°29' E 023°44'917.9
2018-Jan-19 20:30N 37°38' E 023°42'917.6
2018-Jan-19 20:01N 37°46' E 023°38'714.4
2018-Jan-19 19:30N 37°53' E 023°37'4 7.3
2018-Jan-19 19:00N 37°57' E 023°36'1 1.3
2018-Jan-19 18:30N 37°58' E 023°36'0 0.0
2018-Jan-19 18:00N 37°58' E 023°36'0 0.0
2018-Jan-19 17:30N 37°58' E 023°36'0 0.0
2018-Jan-19 17:00N 37°58' E 023°36'0 0.0
2018-Jan-19 16:30N 37°58' E 023°36'0 0.0
2018-Jan-19 16:00N 37°58' E 023°36'0 0.0
2018-Jan-19 15:30N 37°58' E 023°36'0 0.0
2018-Jan-19 15:00N 37°58' E 023°36'0 0.0
2018-Jan-19 14:30N 37°58' E 023°36'0 0.0
2018-Jan-19 14:00N 37°58' E 023°36'0 0.0
2018-Jan-19 13:30N 37°58' E 023°36'0 0.0
2018-Jan-19 13:00N 37°58' E 023°36'0 0.0
2018-Jan-19 12:30N 37°58' E 023°36'0 0.0
2018-Jan-19 12:00N 37°58' E 023°36'0 0.6
2018-Jan-19 11:30N 37°57' E 023°36'2 3.8
2018-Jan-19 11:01N 37°56' E 023°36'2 3.9
2018-Jan-19 10:30N 37°54' E 023°36'1 1.7
2018-Jan-19 10:00N 37°53' E 023°36'0 0.5
2018-Jan-19 09:30N 37°53' E 023°35'2 4.1
2018-Jan-19 09:01N 37°53' E 023°38'2 4.5
2018-Jan-19 08:31N 37°51' E 023°40'3 5.3
2018-Jan-19 08:01N 37°48' E 023°41'5 9.5
2018-Jan-19 07:29N 37°44' E 023°44'510.5
2018-Jan-19 07:00N 37°40' E 023°47'510.9
2018-Jan-19 06:30N 37°36' E 023°52'611.3
2018-Jan-19 05:56N 37°32' E 023°58'510.0
2018-Jan-19 05:28N 37°28' E 024°02'612.7
2018-Jan-19 05:00N 37°23' E 024°04'815.1
2018-Jan-19 04:30N 37°15' E 024°05'815.3
2018-Jan-19 04:00N 37°08' E 024°06'815.3
2018-Jan-19 03:30N 37°00' E 024°07'815.4
2018-Jan-19 03:00N 36°52' E 024°08'815.2
2018-Jan-19 02:30N 36°45' E 024°10'714.8
2018-Jan-19 02:00N 36°38' E 024°12'815.2
2018-Jan-19 01:30N 36°33' E 024°20'815.3
2018-Jan-19 01:00N 36°29' E 024°28'815.2
2018-Jan-19 00:30N 36°25' E 024°35'815.0
2018-Jan-19 00:00N 36°21' E 024°43'714.7
2018-Jan-18 23:30N 36°17' E 024°51'714.6
2018-Jan-18 23:00N 36°13' E 024°59'714.6
2018-Jan-18 22:30N 36°09' E 025°06'714.5
2018-Jan-18 22:00N 36°06' E 025°14'714.4
2018-Jan-18 21:30N 36°02' E 025°22'714.4
2018-Jan-18 21:00N 35°57' E 025°29'713.9
2018-Jan-18 20:30N 35°53' E 025°36'713.0
2018-Jan-18 20:00N 35°50' E 025°42'612.5
2018-Jan-18 19:30N 35°46' E 025°49'611.3
2018-Jan-18 19:00N 35°43' E 025°54'510.9
2018-Jan-18 18:30N 35°40' E 025°60'510.1
2018-Jan-18 17:59N 35°36' E 026°05'4 8.5
2018-Jan-18 17:30N 35°34' E 026°09'510.0
2018-Jan-18 17:00N 35°31' E 026°14'  

Dump ship's entire track history